createdAt,value
2023-02-11T00:00:40.470Z,103435.13
2023-02-11T00:03:07.074Z,103429.84
2023-02-11T00:05:33.927Z,103437.78
2023-02-11T00:08:00.390Z,103426.00
2023-02-11T00:10:26.969Z,103420.38
2023-02-11T00:12:53.427Z,103418.09
2023-02-11T00:15:21.222Z,103427.88
2023-02-11T00:17:47.739Z,103425.69
2023-02-11T00:20:14.505Z,103419.97
2023-02-11T00:22:40.982Z,103422.59
2023-02-11T00:25:07.624Z,103418.09
2023-02-11T00:27:34.170Z,103419.19
2023-02-11T00:30:02.273Z,103427.13
2023-02-11T00:32:30.418Z,103424.81
2023-02-11T00:34:56.943Z,103422.19
2023-02-11T00:37:23.471Z,103422.94
2023-02-11T00:39:50.252Z,103424.81
2023-02-11T00:42:17.030Z,103419.53
2023-02-11T00:44:45.027Z,103432.31
2023-02-11T00:47:11.690Z,103431.22
2023-02-11T00:49:40.291Z,103432.31
2023-02-11T00:52:06.894Z,103437.59
2023-02-11T00:54:34.361Z,103428.13
2023-02-11T00:57:00.827Z,103425.50
2023-02-11T00:59:27.504Z,103427.38
2023-02-11T01:01:54.043Z,103420.22
2023-02-11T01:04:20.735Z,103415.25
2023-02-11T01:06:47.628Z,103412.63
2023-02-11T01:09:14.221Z,103403.53
2023-02-11T01:11:40.833Z,103396.72
2023-02-11T01:14:07.468Z,103398.16
2023-02-11T01:16:33.930Z,103398.50
2023-02-11T01:19:00.446Z,103398.81
2023-02-11T01:21:26.955Z,103397.28
2023-02-11T01:23:53.388Z,103383.66
2023-02-11T01:26:20.035Z,103355.25
2023-02-11T01:28:46.807Z,103363.53
2023-02-11T01:31:13.833Z,103374.78
2023-02-11T01:33:40.911Z,103383.81
2023-02-11T01:36:08.776Z,103387.56
2023-02-11T01:38:35.490Z,103395.06
2023-02-11T01:41:14.530Z,103404.50
2023-02-11T01:43:44.540Z,103412.44
2023-02-11T01:46:23.574Z,103418.50
2023-02-11T01:49:20.065Z,103417.72
2023-02-11T01:52:14.373Z,103402.22
2023-02-11T01:55:04.421Z,103395.38
2023-02-11T01:57:34.850Z,103402.13
2023-02-11T02:00:07.529Z,103407.72
2023-02-11T02:02:52.495Z,103414.13
2023-02-11T02:05:40.865Z,103411.03
2023-02-11T02:08:22.754Z,103412.91
2023-02-11T02:10:54.646Z,103412.16
2023-02-11T02:13:21.200Z,103409.84
2023-02-11T02:15:53.649Z,103404.13
2023-02-11T02:18:39.002Z,103401.50
2023-02-11T02:21:08.229Z,103398.41
2023-02-11T02:23:40.781Z,103400.28
2023-02-11T02:26:16.488Z,103400.22
2023-02-11T02:29:11.656Z,103395.63
2023-02-11T02:31:56.405Z,103392.88
2023-02-11T02:34:44.462Z,103399.94
2023-02-11T02:37:55.134Z,103396.09
2023-02-11T02:40:29.502Z,103378.28
2023-02-11T02:42:57.687Z,103375.97
2023-02-11T02:45:24.641Z,103370.69
2023-02-11T02:47:51.056Z,103375.22
2023-02-11T02:50:30.036Z,103374.78
2023-02-11T02:53:11.838Z,103380.81
2023-02-11T02:55:51.601Z,103380.06
2023-02-11T02:58:33.044Z,103381.94
2023-02-11T03:01:28.663Z,103385.78
2023-02-11T03:04:01.293Z,103386.88
2023-02-11T03:06:46.408Z,103379.72
2023-02-11T03:09:44.229Z,103376.31
2023-02-11T03:12:13.229Z,103371.03
2023-02-11T03:14:41.012Z,103373.69
2023-02-11T03:17:10.240Z,103361.25
2023-02-11T03:19:43.652Z,103359.72
2023-02-11T03:22:25.626Z,103353.22
2023-02-11T03:24:52.060Z,103351.69
2023-02-11T03:27:27.385Z,103355.44
2023-02-11T03:30:32.944Z,103347.50
2023-02-11T03:33:22.637Z,103348.94
2023-02-11T03:35:56.449Z,103349.72
2023-02-11T03:38:37.435Z,103356.88
2023-02-11T03:41:07.812Z,103357.97
2023-02-11T03:43:41.910Z,103355.34
2023-02-11T03:46:11.989Z,103345.88
2023-02-11T03:48:42.348Z,103338.28
2023-02-11T03:51:11.208Z,103322.38
2023-02-11T03:53:41.104Z,103339.31
2023-02-11T03:56:12.664Z,103330.22
2023-02-11T03:58:39.169Z,103335.81
2023-02-11T04:01:08.813Z,103340.34
2023-02-11T04:03:35.813Z,103331.22
2023-02-11T04:06:02.482Z,103350.78
2023-02-11T04:08:29.106Z,103350.47
2023-02-11T04:10:55.590Z,103353.88
2023-02-11T04:13:22.510Z,103352.44
2023-02-11T04:15:49.271Z,103358.88
2023-02-11T04:18:15.833Z,103360.84
2023-02-11T04:20:42.514Z,103351.06
2023-02-11T04:23:10.378Z,103356.34
2023-02-11T04:25:36.914Z,103363.16
2023-02-11T04:28:03.610Z,103355.66
2023-02-11T04:30:30.188Z,103362.47
2023-02-11T04:32:58.544Z,103369.31
2023-02-11T04:35:25.095Z,103368.97
2023-02-11T04:37:51.581Z,103365.22
2023-02-11T04:40:18.175Z,103367.09
2023-02-11T04:42:44.610Z,103369.06
2023-02-11T04:45:11.303Z,103361.91
2023-02-11T04:47:37.964Z,103364.22
2023-02-11T04:50:04.824Z,103368.41
2023-02-11T04:52:31.262Z,103369.94
2023-02-11T04:54:57.796Z,103370.69
2023-02-11T04:57:24.315Z,103366.19
2023-02-11T04:59:50.798Z,103365.09
2023-02-11T05:02:17.357Z,103366.63
2023-02-11T05:04:43.782Z,103362.09
2023-02-11T05:07:11.544Z,103369.69
2023-02-11T05:09:38.061Z,103373.88
2023-02-11T05:12:04.613Z,103374.31
2023-02-11T05:14:31.123Z,103379.59
2023-02-11T05:16:57.772Z,103371.31
2023-02-11T05:19:24.277Z,103371.31
2023-02-11T05:22:02.246Z,103374.41
2023-02-11T05:24:33.093Z,103375.16
2023-02-11T05:26:59.963Z,103373.28
2023-02-11T05:29:26.492Z,103367.66
2023-02-11T05:31:53.050Z,103372.94
2023-02-11T05:34:19.596Z,103369.97
2023-02-11T05:36:46.078Z,103371.50
2023-02-11T05:39:12.590Z,103364.34
2023-02-11T05:41:39.076Z,103367.78
2023-02-11T05:44:05.578Z,103371.59
2023-02-11T05:46:32.088Z,103359.50
2023-02-11T05:48:58.720Z,103358.41
2023-02-11T05:51:25.339Z,103361.81
2023-02-11T05:53:53.480Z,103364.09
2023-02-11T05:56:20.061Z,103370.91
2023-02-11T05:58:46.696Z,103365.63
2023-02-11T06:01:13.166Z,103370.56
2023-02-11T06:03:39.701Z,103363.41
2023-02-11T06:06:11.538Z,103363.41
2023-02-11T06:08:40.477Z,103367.59
2023-02-11T06:11:07.237Z,103376.72
2023-02-11T06:13:34.179Z,103382.00
2023-02-11T06:16:02.461Z,103386.94
2023-02-11T06:18:29.490Z,103383.19
2023-02-11T06:20:56.593Z,103379.44
2023-02-11T06:23:23.471Z,103381.75
2023-02-11T06:25:50.911Z,103385.16
2023-02-11T06:28:17.719Z,103378.00
2023-02-11T06:30:44.521Z,103385.59
2023-02-11T06:33:11.026Z,103380.75
2023-02-11T06:35:40.758Z,103384.16
2023-02-11T06:38:07.234Z,103380.41
2023-02-11T06:40:33.861Z,103381.94
2023-02-11T06:43:00.439Z,103383.47
2023-02-11T06:45:26.950Z,103373.66
2023-02-11T06:47:53.537Z,103378.63
2023-02-11T06:50:20.150Z,103366.16
2023-02-11T06:52:46.637Z,103374.88
2023-02-11T06:55:13.674Z,103377.50
2023-02-11T06:57:40.234Z,103378.28
2023-02-11T07:00:07.335Z,103377.16
2023-02-11T07:02:33.969Z,103378.72
2023-02-11T07:05:00.467Z,103382.13
2023-02-11T07:07:27.807Z,103390.91
2023-02-11T07:09:54.292Z,103390.56
2023-02-11T07:12:20.820Z,103393.63
2023-02-11T07:14:47.309Z,103395.59
2023-02-11T07:17:13.916Z,103405.06
2023-02-11T07:19:40.520Z,103396.03
2023-02-11T07:22:07.151Z,103388.50
2023-02-11T07:24:33.589Z,103403.25
2023-02-11T07:27:00.058Z,103403.69
2023-02-11T07:29:26.630Z,103408.63
2023-02-11T07:31:53.094Z,103408.72
2023-02-11T07:34:19.685Z,103415.97
2023-02-11T07:36:46.326Z,103418.25
2023-02-11T07:39:12.964Z,103421.34
2023-02-11T07:41:39.502Z,103411.97
2023-02-11T07:44:06.322Z,103425.59
2023-02-11T07:46:34.542Z,103422.63
2023-02-11T07:49:01.290Z,103426.81
2023-02-11T07:51:30.107Z,103428.00
2023-02-11T07:53:58.774Z,103434.81
2023-02-11T07:56:25.476Z,103423.91
2023-02-11T07:58:52.070Z,103423.59
2023-02-11T08:01:25.567Z,103418.72
2023-02-11T08:03:52.173Z,103424.78
2023-02-11T08:06:20.950Z,103428.63
2023-02-11T08:08:48.483Z,103426.75
2023-02-11T08:11:17.237Z,103430.25
2023-02-11T08:13:44.338Z,103428.34
2023-02-11T08:16:22.834Z,103432.28
2023-02-11T08:18:50.661Z,103438.75
2023-02-11T08:21:17.336Z,103434.66
2023-02-11T08:23:44.730Z,103435.84
2023-02-11T08:26:18.138Z,103429.09
2023-02-11T08:28:46.187Z,103431.75
2023-02-11T08:31:18.983Z,103432.19
2023-02-11T08:33:46.212Z,103433.78
2023-02-11T08:36:17.931Z,103433.44
2023-02-11T08:38:45.261Z,103442.16
2023-02-11T08:41:14.823Z,103449.41
2023-02-11T08:43:42.427Z,103453.25
2023-02-11T08:46:12.049Z,103457.84
2023-02-11T08:48:38.620Z,103453.75
2023-02-11T08:51:32.974Z,103451.19
2023-02-11T08:54:00.559Z,103453.47
2023-02-11T08:56:27.780Z,103452.00
2023-02-11T08:58:54.840Z,103455.50
2023-02-11T09:01:24.730Z,103457.13
2023-02-11T09:03:51.328Z,103464.78
2023-02-11T09:06:18.807Z,103459.22
2023-02-11T09:08:49.383Z,103467.25
2023-02-11T09:11:18.000Z,103471.16
2023-02-11T09:13:45.151Z,103478.06
2023-02-11T09:16:27.101Z,103477.78
2023-02-11T09:18:53.636Z,103481.69
2023-02-11T09:21:20.262Z,103480.66
2023-02-11T09:23:47.761Z,103480.03
2023-02-11T09:26:19.864Z,103480.88
2023-02-11T09:28:47.105Z,103490.78
2023-02-11T09:31:16.556Z,103489.31
2023-02-11T09:33:48.840Z,103490.91
2023-02-11T09:36:21.237Z,103485.69
2023-02-11T09:38:48.645Z,103497.09
2023-02-11T09:41:24.257Z,103496.75
2023-02-11T09:43:54.663Z,103499.91
2023-02-11T09:46:23.424Z,103490.13
2023-02-11T09:48:53.538Z,103495.16
2023-02-11T09:51:29.908Z,103494.09
2023-02-11T09:54:02.150Z,103505.53
2023-02-11T09:56:31.398Z,103507.16
2023-02-11T09:58:57.893Z,103505.75
2023-02-11T10:01:39.077Z,103509.59
2023-02-11T10:04:20.816Z,103512.69
2023-02-11T10:07:00.334Z,103522.25
2023-02-11T10:09:42.931Z,103526.50
2023-02-11T10:12:15.371Z,103523.13
2023-02-11T10:15:03.307Z,103532.00
2023-02-11T10:17:38.794Z,103537.00
2023-02-11T10:20:17.056Z,103535.59
2023-02-11T10:22:49.386Z,103543.38
2023-02-11T10:25:38.705Z,103540.13
2023-02-11T10:28:19.742Z,103544.13
2023-02-11T10:30:57.458Z,103551.50
2023-02-11T10:33:32.551Z,103557.44
2023-02-11T10:35:59.508Z,103549.13
2023-02-11T10:38:27.763Z,103554.50
2023-02-11T10:40:54.362Z,103547.34
2023-02-11T10:43:26.866Z,103553.44
2023-02-11T10:45:55.868Z,103559.16
2023-02-11T10:48:39.849Z,103562.16
2023-02-11T10:51:28.860Z,103562.94
2023-02-11T10:54:04.801Z,103549.94
2023-02-11T10:56:34.292Z,103560.22
2023-02-11T10:59:22.102Z,103553.38
2023-02-11T11:01:56.420Z,103556.03
2023-02-11T11:04:42.956Z,103555.66
2023-02-11T11:07:12.446Z,103560.31
2023-02-11T11:10:29.550Z,103563.84
2023-02-11T11:12:56.050Z,103567.69
2023-02-11T11:15:29.152Z,103583.03
2023-02-11T11:18:23.232Z,103578.53
2023-02-11T11:21:12.588Z,103581.25
2023-02-11T11:23:39.714Z,103579.72
2023-02-11T11:26:12.610Z,103586.97
2023-02-11T11:28:53.256Z,103593.75
2023-02-11T11:31:33.394Z,103595.28
2023-02-11T11:34:03.704Z,103593.09
2023-02-11T11:36:40.026Z,103595.50
2023-02-11T11:39:21.509Z,103596.69
2023-02-11T11:41:54.524Z,103605.47
2023-02-11T11:44:27.828Z,103597.69
2023-02-11T11:47:12.618Z,103592.00
2023-02-11T11:49:47.435Z,103602.28
2023-02-11T11:52:29.250Z,103585.28
2023-02-11T11:55:07.724Z,103576.59
2023-02-11T11:57:37.248Z,103568.25
2023-02-11T12:00:05.019Z,103573.25
2023-02-11T12:03:09.512Z,103576.72
2023-02-11T12:06:01.084Z,103573.34
2023-02-11T12:09:01.583Z,103568.41
2023-02-11T12:11:39.705Z,103566.50
2023-02-11T12:14:30.557Z,103560.47
2023-02-11T12:17:22.389Z,103558.56
2023-02-11T12:20:01.226Z,103559.72
2023-02-11T12:22:48.308Z,103570.41
2023-02-11T12:25:26.736Z,103569.31
2023-02-11T12:28:07.192Z,103566.72
2023-02-11T12:31:27.595Z,103573.59
2023-02-11T12:34:12.804Z,103567.50
2023-02-11T12:37:19.828Z,103556.38
2023-02-11T12:39:57.910Z,103563.53
2023-02-11T12:42:57.677Z,103566.50
2023-02-11T12:45:38.564Z,103568.78
2023-02-11T12:48:10.848Z,103572.19
2023-02-11T12:51:26.469Z,103573.72
2023-02-11T12:54:11.478Z,103568.44
2023-02-11T12:56:46.368Z,103565.84
2023-02-11T12:59:31.479Z,103571.19
2023-02-11T13:02:01.060Z,103565.06
2023-02-11T13:04:37.324Z,103560.16
2023-02-11T13:07:11.660Z,103561.66
2023-02-11T13:09:51.637Z,103555.22
2023-02-11T13:12:37.526Z,103567.03
2023-02-11T13:15:07.728Z,103565.16
2023-02-11T13:17:44.880Z,103566.38
2023-02-11T13:20:31.855Z,103570.25
2023-02-11T13:23:11.418Z,103559.41
2023-02-11T13:25:48.860Z,103564.00
2023-02-11T13:28:17.864Z,103565.94
2023-02-11T13:30:51.665Z,103566.28
2023-02-11T13:33:30.167Z,103559.84
2023-02-11T13:35:56.617Z,103551.44
2023-02-11T13:38:25.645Z,103549.91
2023-02-11T13:41:18.058Z,103552.19
2023-02-11T13:43:45.136Z,103541.91
2023-02-11T13:46:13.713Z,103548.72
2023-02-11T13:48:47.955Z,103545.28
2023-02-11T13:51:17.510Z,103552.91
2023-02-11T13:53:55.787Z,103554.44
2023-02-11T13:56:32.798Z,103550.97
2023-02-11T13:59:02.416Z,103552.06
2023-02-11T14:02:07.218Z,103552.81
2023-02-11T14:04:52.909Z,103552.81
2023-02-11T14:07:50.521Z,103563.47
2023-02-11T14:10:38.763Z,103560.47
2023-02-11T14:13:19.744Z,103564.31
2023-02-11T14:15:46.819Z,103556.72
2023-02-11T14:18:35.118Z,103554.84
2023-02-11T14:21:27.812Z,103557.50
2023-02-11T14:24:14.369Z,103560.13
2023-02-11T14:26:49.966Z,103566.22
2023-02-11T14:29:36.986Z,103563.53
2023-02-11T14:32:31.330Z,103557.81
2023-02-11T14:35:43.164Z,103563.44
2023-02-11T14:38:47.100Z,103564.19
2023-02-11T14:41:26.976Z,103571.44
2023-02-11T14:44:15.197Z,103569.53
2023-02-11T14:46:50.392Z,103567.59
2023-02-11T14:49:25.170Z,103568.69
2023-02-11T14:51:54.396Z,103562.94
2023-02-11T14:54:26.771Z,103577.41
2023-02-11T14:57:18.000Z,103574.75
2023-02-11T15:00:02.186Z,103567.91
2023-02-11T15:02:33.919Z,103572.81
2023-02-11T15:05:18.883Z,103572.06
2023-02-11T15:07:51.453Z,103572.06
2023-02-11T15:10:27.169Z,103570.53
2023-02-11T15:12:54.453Z,103571.28
2023-02-11T15:15:21.487Z,103576.25
2023-02-11T15:17:48.360Z,103581.94
2023-02-11T15:20:41.175Z,103581.91
2023-02-11T15:23:12.553Z,103584.13
2023-02-11T15:25:51.252Z,103584.13
2023-02-11T15:28:28.913Z,103592.81
2023-02-11T15:30:58.631Z,103592.03
2023-02-11T15:33:25.967Z,103590.41
2023-02-11T15:35:52.544Z,103596.81
2023-02-11T15:38:19.367Z,103593.34
2023-02-11T15:40:54.726Z,103592.53
2023-02-11T15:43:21.377Z,103587.94
2023-02-11T15:45:56.403Z,103585.59
2023-02-11T15:48:30.715Z,103586.31
2023-02-11T15:51:00.450Z,103597.69
2023-02-11T15:53:40.468Z,103592.28
2023-02-11T15:56:17.792Z,103607.06
2023-02-11T15:58:47.486Z,103600.50
2023-02-11T16:01:14.664Z,103606.50
2023-02-11T16:03:43.338Z,103601.94
2023-02-11T16:06:23.610Z,103606.06
2023-02-11T16:09:08.536Z,103602.59
2023-02-11T16:11:56.714Z,103609.75
2023-02-11T16:14:23.517Z,103610.47
2023-02-11T16:16:53.188Z,103610.41
2023-02-11T16:19:23.592Z,103608.13
2023-02-11T16:21:53.927Z,103605.00
2023-02-11T16:24:41.556Z,103604.53
2023-02-11T16:27:21.499Z,103609.75
2023-02-11T16:29:52.246Z,103618.09
2023-02-11T16:32:24.370Z,103620.34
2023-02-11T16:34:52.219Z,103615.75
2023-02-11T16:37:18.973Z,103612.25
2023-02-11T16:39:46.289Z,103619.47
2023-02-11T16:42:13.716Z,103617.16
2023-02-11T16:44:40.512Z,103630.03
2023-02-11T16:47:16.926Z,103630.03
2023-02-11T16:49:43.662Z,103635.69
2023-02-11T16:52:14.582Z,103629.19
2023-02-11T16:54:41.377Z,103637.88
2023-02-11T16:57:16.613Z,103642.47
2023-02-11T16:59:43.540Z,103647.38
2023-02-11T17:02:18.296Z,103642.41
2023-02-11T17:04:45.471Z,103655.28
2023-02-11T17:07:12.622Z,103662.84
2023-02-11T17:09:39.194Z,103670.38
2023-02-11T17:12:06.107Z,103669.56
2023-02-11T17:14:32.535Z,103663.06
2023-02-11T17:16:58.991Z,103672.91
2023-02-11T17:19:25.539Z,103669.44
2023-02-11T17:21:52.700Z,103665.63
2023-02-11T17:24:21.288Z,103674.28
2023-02-11T17:26:48.806Z,103673.06
2023-02-11T17:29:20.819Z,103671.47
2023-02-11T17:31:47.480Z,103676.38
2023-02-11T17:34:14.072Z,103672.53
2023-02-11T17:36:41.338Z,103672.09
2023-02-11T17:39:08.833Z,103676.22
2023-02-11T17:41:37.431Z,103684.13
2023-02-11T17:44:04.650Z,103686.34
2023-02-11T17:46:33.106Z,103686.28
2023-02-11T17:48:59.701Z,103689.63
2023-02-11T17:51:33.759Z,103693.00
2023-02-11T17:54:02.361Z,103689.16
2023-02-11T17:56:31.353Z,103692.94
2023-02-11T17:58:57.889Z,103692.53
2023-02-11T18:01:27.368Z,103691.75
2023-02-11T18:03:53.876Z,103694.75
2023-02-11T18:06:21.535Z,103693.16
2023-02-11T18:08:48.586Z,103693.09
2023-02-11T18:11:16.379Z,103696.84
2023-02-11T18:13:45.030Z,103696.00
2023-02-11T18:16:15.854Z,103692.59
2023-02-11T18:18:43.433Z,103700.47
2023-02-11T18:21:15.832Z,103707.66
2023-02-11T18:23:43.328Z,103709.88
2023-02-11T18:26:12.216Z,103711.34
2023-02-11T18:28:39.849Z,103714.00
2023-02-11T18:31:07.787Z,103716.22
2023-02-11T18:33:35.497Z,103710.94
2023-02-11T18:36:06.603Z,103715.47
2023-02-11T18:38:33.453Z,103718.47
2023-02-11T18:41:00.128Z,103724.88
2023-02-11T18:43:31.611Z,103729.75
2023-02-11T18:45:58.295Z,103728.22
2023-02-11T18:48:27.030Z,103731.97
2023-02-11T18:50:54.949Z,103736.88
2023-02-11T18:53:22.092Z,103735.75
2023-02-11T18:55:49.337Z,103729.69
2023-02-11T18:58:15.983Z,103726.59
2023-02-11T19:00:46.743Z,103725.84
2023-02-11T19:03:13.263Z,103730.41
2023-02-11T19:05:48.225Z,103736.38
2023-02-11T19:08:16.103Z,103734.09
2023-02-11T19:10:45.272Z,103736.66
2023-02-11T19:13:12.533Z,103737.34
2023-02-11T19:15:46.300Z,103734.69
2023-02-11T19:18:14.194Z,103738.44
2023-02-11T19:20:42.348Z,103740.00
2023-02-11T19:23:09.673Z,103742.22
2023-02-11T19:25:36.873Z,103742.22
2023-02-11T19:28:03.845Z,103742.22
2023-02-11T19:30:30.637Z,103748.97
2023-02-11T19:32:57.710Z,103746.31
2023-02-11T19:35:25.072Z,103753.50
2023-02-11T19:37:51.506Z,103758.81
2023-02-11T19:40:19.143Z,103759.50
2023-02-11T19:42:45.585Z,103760.25
2023-02-11T19:45:12.076Z,103762.16
2023-02-11T19:47:38.601Z,103767.78
2023-02-11T19:50:06.207Z,103768.56
2023-02-11T19:52:32.912Z,103761.72
2023-02-11T19:55:00.334Z,103767.78
2023-02-11T19:57:26.922Z,103773.44
2023-02-11T19:59:54.828Z,103773.44
2023-02-11T20:02:21.517Z,103776.41
2023-02-11T20:04:48.062Z,103774.88
2023-02-11T20:07:14.634Z,103783.59
2023-02-11T20:09:42.516Z,103785.13
2023-02-11T20:12:09.240Z,103787.78
2023-02-11T20:14:35.763Z,103788.91
2023-02-11T20:17:02.474Z,103785.47
2023-02-11T20:19:30.509Z,103786.59
2023-02-11T20:21:57.118Z,103783.19
2023-02-11T20:24:24.775Z,103787.72
2023-02-11T20:26:55.234Z,103788.03
2023-02-11T20:29:22.220Z,103789.94
2023-02-11T20:31:50.250Z,103805.06
2023-02-11T20:34:17.660Z,103803.19
2023-02-11T20:36:51.327Z,103802.84
2023-02-11T20:39:18.598Z,103810.09
2023-02-11T20:41:45.992Z,103809.00
2023-02-11T20:44:13.110Z,103810.88
2023-02-11T20:46:42.924Z,103809.34
2023-02-11T20:49:12.352Z,103811.56
2023-02-11T20:51:39.621Z,103814.22
2023-02-11T20:54:06.729Z,103813.44
2023-02-11T20:56:36.912Z,103813.00
2023-02-11T20:59:04.338Z,103815.22
2023-02-11T21:01:33.981Z,103820.53
2023-02-11T21:04:02.993Z,103823.94
2023-02-11T21:06:35.954Z,103831.91
2023-02-11T21:09:03.578Z,103825.06
2023-02-11T21:11:31.020Z,103825.81
2023-02-11T21:13:58.546Z,103831.47
2023-02-11T21:16:25.558Z,103838.66
2023-02-11T21:18:52.349Z,103834.81
2023-02-11T21:21:19.387Z,103834.03
2023-02-11T21:23:46.139Z,103834.81
2023-02-11T21:26:13.549Z,103838.22
2023-02-11T21:28:41.174Z,103844.63
2023-02-11T21:31:08.223Z,103845.75
2023-02-11T21:33:35.022Z,103850.25
2023-02-11T21:36:04.310Z,103852.91
2023-02-11T21:38:31.300Z,103853.25
2023-02-11T21:41:05.608Z,103846.44
2023-02-11T21:43:32.607Z,103850.19
2023-02-11T21:45:59.474Z,103856.28
2023-02-11T21:48:26.732Z,103852.09
2023-02-11T21:50:54.031Z,103852.84
2023-02-11T21:53:20.549Z,103858.91
2023-02-11T21:55:47.162Z,103855.50
2023-02-11T21:58:14.184Z,103857.38
2023-02-11T22:00:40.792Z,103861.13
2023-02-11T22:03:07.401Z,103862.25
2023-02-11T22:05:33.890Z,103866.16
2023-02-11T22:08:00.376Z,103873.00
2023-02-11T22:10:26.904Z,103865.06
2023-02-11T22:12:53.483Z,103867.72
2023-02-11T22:15:20.117Z,103870.78
2023-02-11T22:17:46.590Z,103877.63
2023-02-11T22:20:13.176Z,103878.75
2023-02-11T22:22:39.739Z,103876.44
2023-02-11T22:25:06.735Z,103873.34
2023-02-11T22:27:33.195Z,103883.94
2023-02-11T22:29:59.699Z,103876.38
2023-02-11T22:32:26.454Z,103877.47
2023-02-11T22:34:53.545Z,103879.34
2023-02-11T22:37:20.199Z,103881.56
2023-02-11T22:39:46.834Z,103876.59
2023-02-11T22:42:13.512Z,103881.91
2023-02-11T22:44:40.134Z,103877.72
2023-02-11T22:47:06.694Z,103877.38
2023-02-11T22:49:33.221Z,103881.13
2023-02-11T22:52:00.109Z,103877.38
2023-02-11T22:54:26.860Z,103876.59
2023-02-11T22:56:53.356Z,103885.66
2023-02-11T22:59:20.591Z,103876.94
2023-02-11T23:01:47.502Z,103883.78
2023-02-11T23:04:16.980Z,103878.47
2023-02-11T23:06:43.696Z,103883.00
2023-02-11T23:09:14.227Z,103886.78
2023-02-11T23:11:41.436Z,103886.78
2023-02-11T23:14:10.177Z,103883.34
2023-02-11T23:16:37.106Z,103876.94
2023-02-11T23:19:07.282Z,103887.53
2023-02-11T23:21:36.365Z,103885.66
2023-02-11T23:24:10.404Z,103886.78
2023-02-11T23:26:38.558Z,103887.88
2023-02-11T23:29:06.174Z,103890.53
2023-02-11T23:31:40.319Z,103887.88
2023-02-11T23:34:08.288Z,103888.22
2023-02-11T23:36:34.904Z,103889.75
2023-02-11T23:39:01.766Z,103890.88
2023-02-11T23:41:28.885Z,103886.34
2023-02-11T23:43:57.815Z,103888.56
2023-02-11T23:46:25.996Z,103895.41
2023-02-11T23:48:53.111Z,103889.31
2023-02-11T23:51:20.063Z,103882.91
2023-02-11T23:53:49.053Z,103888.22
2023-02-11T23:56:24.510Z,103888.56
2023-02-11T23:58:53.478Z,103891.19
